Iranshahr, Iran
Current Conditions -  °F | °C
As of 6:00 PM on Wednesday 26 Nov 2014 (Local Time) from OIZI Reporting Station
Few Clouds Few Clouds  
Wind Chill: 77°   Ceiling: Unl
Heat Index: 78°   Visibility: 6mi
Dew Point: 52°   Wind: 5mph
Humidity: 41%   Direction: 250°WSW
Pressure: 29.97"   Gusts: NA
Location:  27.21°N, 60.69°E
Report Text: OIZI 261500Z 25004KT 9999 FEW040 25/11 Q1015
Loading
Personal Weather Stations






























Interactive Weather Map New forecast layout! Learn more

10-Day Weather Forecast

Advertisements
Track Severe Weather on mobile